Time;durP1;ratioP1;P1;durP2;ratioP2;P2;SDS_P1;SDS_P2;PMS_P1;PMS_P2;Temp;Humidity;BMP_temperature;BMP_pressure;BME280_temperature;BME280_humidity;BME280_pressure;Samples;Min_cycle;Max_cycle;Signal;HPM_P1;HPM_P2
2022/12/04 05:05:16;;;;;;;9.85;7.82;;;3.40;99.90;;;;;;5217777;23;20471;-68
2022/12/04 05:07:42;;;;;;;6.53;5.00;;;3.40;99.90;;;;;;4917714;29;20538;-67
2022/12/04 05:10:08;;;;;;;15.13;7.20;;;3.40;99.90;;;;;;4917935;29;20194;-67
2022/12/04 05:12:34;;;;;;;10.60;6.47;;;3.50;99.90;;;;;;4917930;29;20189;-69
2022/12/04 05:15:00;;;;;;;11.87;6.93;;;3.50;99.90;;;;;;4916497;29;20191;-69
2022/12/04 05:17:25;;;;;;;11.77;7.50;;;3.40;99.90;;;;;;4899381;29;20174;-67
2022/12/04 05:19:55;;;;;;;11.70;7.20;;;3.50;99.90;;;;;;4899167;29;20173;-67
2022/12/04 05:22:27;;;;;;;9.65;6.82;;;3.40;99.90;;;;;;4899110;29;20186;-68
2022/12/04 05:24:53;;;;;;;14.15;7.18;;;3.40;99.90;;;;;;4898488;29;20205;-67
2022/12/04 05:27:20;;;;;;;9.95;6.63;;;3.40;99.90;;;;;;4911514;29;20174;-67
2022/12/04 05:29:46;;;;;;;9.45;6.93;;;3.40;99.90;;;;;;4896588;29;20174;-68
2022/12/04 05:32:11;;;;;;;7.40;5.85;;;3.50;99.90;;;;;;4917710;29;20222;-67
2022/12/04 05:34:37;;;;;;;11.63;7.63;;;3.40;99.90;;;;;;4901601;29;20632;-66
2022/12/04 05:37:03;;;;;;;10.87;7.63;;;3.50;99.90;;;;;;4898700;29;20185;-66
2022/12/04 05:39:28;;;;;;;11.53;7.00;;;3.50;99.90;;;;;;4898817;29;20232;-68
2022/12/04 05:41:54;;;;;;;10.53;7.03;;;3.50;99.90;;;;;;4898792;29;20206;-66
2022/12/04 05:44:19;;;;;;;7.67;5.80;;;3.50;99.90;;;;;;4901223;29;20222;-67
2022/12/04 05:46:45;;;;;;;12.77;5.10;;;3.40;99.90;;;;;;4903602;29;20200;-68
2022/12/04 05:49:11;;;;;;;9.70;6.73;;;3.40;99.90;;;;;;4897324;29;20714;-67
2022/12/04 05:51:36;;;;;;;12.07;8.27;;;3.50;99.90;;;;;;4898475;29;20191;-69
2022/12/04 05:54:02;;;;;;;11.00;7.30;;;3.40;99.90;;;;;;4899777;29;20277;-67
2022/12/04 05:56:28;;;;;;;10.63;6.70;;;3.50;99.90;;;;;;4917423;29;20535;-68
2022/12/04 05:58:53;;;;;;;9.80;6.27;;;3.40;99.90;;;;;;4916110;29;20207;-66
2022/12/04 06:01:22;;;;;;;7.67;5.87;;;3.50;99.90;;;;;;4917458;29;20179;-68
2022/12/04 06:03:48;;;;;;;14.82;8.10;;;3.50;99.90;;;;;;4916830;29;20198;-66
2022/12/04 06:06:16;;;;;;;11.07;6.07;;;3.40;99.90;;;;;;4899545;29;20224;-67
2022/12/04 06:08:42;;;;;;;10.20;6.25;;;3.40;99.90;;;;;;4900836;29;20673;-68
2022/12/04 06:11:21;;;;;;;9.70;6.80;;;3.40;99.90;;;;;;4905737;29;20214;-66
2022/12/04 06:13:58;;;;;;;10.93;5.90;;;3.50;99.90;;;;;;4896729;29;20209;-67
2022/12/04 06:16:30;;;;;;;10.23;6.75;;;3.50;99.90;;;;;;4897098;29;20190;-63
2022/12/04 06:18:58;;;;;;;12.35;9.30;;;3.50;99.90;;;;;;4897007;29;20281;-66
2022/12/04 06:21:27;;;;;;;7.65;5.55;;;3.50;99.90;;;;;;4898396;29;20580;-68
2022/12/04 06:23:53;;;;;;;11.65;6.97;;;3.50;99.90;;;;;;4897308;29;20226;-68
2022/12/04 06:26:19;;;;;;;9.35;5.55;;;3.40;99.90;;;;;;4898320;29;20262;-67
2022/12/04 06:28:45;;;;;;;12.32;6.85;;;3.40;99.90;;;;;;4898228;29;20171;-66
2022/12/04 06:31:13;;;;;;;9.43;6.77;;;3.50;99.90;;;;;;4898086;29;20736;-66
2022/12/04 06:33:39;;;;;;;10.85;6.57;;;3.50;99.90;;;;;;4897835;29;20547;-67
2022/12/04 06:36:09;;;;;;;9.90;6.95;;;3.50;99.90;;;;;;4897746;29;20179;-67
2022/12/04 06:38:35;;;;;;;10.10;5.55;;;3.50;99.90;;;;;;4898027;29;20174;-68
2022/12/04 06:41:09;;;;;;;8.32;5.68;;;3.50;99.90;;;;;;4897903;29;20250;-65
2022/12/04 06:43:35;;;;;;;13.95;7.70;;;3.50;99.90;;;;;;4897641;29;20540;-68
2022/12/04 06:46:12;;;;;;;9.35;6.32;;;3.40;99.90;;;;;;4904642;29;20682;-67
2022/12/04 06:48:39;;;;;;;10.55;6.65;;;3.40;99.90;;;;;;4915813;29;20196;-66
2022/12/04 06:51:06;;;;;;;10.45;6.90;;;3.50;99.90;;;;;;4916697;29;20202;-66
2022/12/04 06:53:33;;;;;;;8.52;7.07;;;3.40;99.90;;;;;;4916319;29;20201;-68
2022/12/04 06:56:01;;;;;;;8.80;6.90;;;3.40;99.90;;;;;;4899999;29;20186;-67
2022/12/04 06:58:27;;;;;;;10.68;5.72;;;3.40;99.90;;;;;;4897884;29;20588;-68
2022/12/04 07:00:53;;;;;;;8.20;6.30;;;3.40;99.90;;;;;;4898226;29;20539;-68
2022/12/04 07:03:19;;;;;;;9.00;6.30;;;3.50;99.90;;;;;;4897421;29;20171;-69
2022/12/04 07:05:44;;;;;;;11.00;6.88;;;3.50;99.90;;;;;;4911932;29;20453;-67
2022/12/04 07:08:10;;;;;;;12.20;7.30;;;3.50;99.90;;;;;;4916668;29;20530;-68
2022/12/04 07:10:36;;;;;;;13.73;7.97;;;3.50;99.90;;;;;;4916635;29;20199;-67
2022/12/04 07:13:03;;;;;;;9.13;6.72;;;3.50;99.90;;;;;;4916378;29;20177;-67
2022/12/04 07:15:31;;;;;;;7.65;4.90;;;3.50;99.90;;;;;;4916534;29;20697;-67
2022/12/04 07:17:57;;;;;;;8.73;5.43;;;3.50;99.90;;;;;;4916940;29;20186;-65
2022/12/04 07:20:23;;;;;;;10.15;6.85;;;3.50;99.90;;;;;;4917208;29;20175;-68
2022/12/04 07:22:48;;;;;;;10.80;6.40;;;3.50;99.90;;;;;;4916222;29;20189;-68
2022/12/04 07:25:14;;;;;;;11.00;7.93;;;3.50;99.90;;;;;;4918611;29;20194;-68
2022/12/04 07:27:40;;;;;;;10.37;6.27;;;3.50;99.90;;;;;;4916726;29;20243;-67
2022/12/04 07:30:06;;;;;;;10.80;6.50;;;3.50;99.90;;;;;;4916550;29;20174;-67
2022/12/04 07:32:31;;;;;;;10.82;6.38;;;3.50;99.90;;;;;;4900770;29;20182;-68
2022/12/04 07:34:57;;;;;;;12.57;7.37;;;3.50;99.90;;;;;;4908490;29;20557;-69
2022/12/04 07:37:22;;;;;;;12.23;7.10;;;3.50;99.90;;;;;;4925164;29;20196;-68
2022/12/04 07:39:51;;;;;;;11.63;6.30;;;3.50;99.90;;;;;;4923531;29;20221;-67
2022/12/04 07:42:18;;;;;;;11.55;6.38;;;3.50;99.90;;;;;;4919968;29;20220;-66
2022/12/04 07:44:44;;;;;;;8.93;6.18;;;3.50;99.90;;;;;;4916559;29;20532;-69
2022/12/04 07:47:09;;;;;;;9.20;6.13;;;3.50;99.90;;;;;;4906811;29;20182;-67
2022/12/04 07:49:35;;;;;;;7.70;5.00;;;3.50;99.90;;;;;;4922721;29;20178;-69
2022/12/04 07:52:00;;;;;;;9.77;6.10;;;3.50;99.90;;;;;;4910719;29;20329;-67
2022/12/04 07:54:26;;;;;;;9.87;7.00;;;3.50;99.90;;;;;;4901151;29;20199;-66
2022/12/04 07:56:52;;;;;;;13.30;8.40;;;3.60;99.90;;;;;;4905915;29;20179;-68
2022/12/04 07:59:17;;;;;;;8.40;6.47;;;3.50;99.90;;;;;;4901248;29;20254;-68
2022/12/04 08:01:43;;;;;;;8.97;6.20;;;3.60;99.90;;;;;;4900270;29;20261;-68
2022/12/04 08:04:09;;;;;;;10.10;6.73;;;3.60;99.90;;;;;;4900313;29;20206;-67
2022/12/04 08:06:36;;;;;;;9.65;5.72;;;3.60;99.90;;;;;;4900172;29;20638;-69
2022/12/04 08:09:03;;;;;;;9.18;6.95;;;3.60;99.90;;;;;;4900294;29;20271;-68
2022/12/04 08:11:29;;;;;;;9.70;6.45;;;3.60;99.90;;;;;;4900386;29;20471;-66
2022/12/04 08:13:57;;;;;;;8.05;6.55;;;3.60;99.90;;;;;;4900097;29;20202;-66
2022/12/04 08:16:23;;;;;;;9.60;7.38;;;3.60;99.90;;;;;;4899071;29;20176;-67
2022/12/04 08:18:48;;;;;;;7.75;5.97;;;3.70;99.90;;;;;;4900014;29;20230;-66
2022/12/04 08:21:19;;;;;;;10.67;6.33;;;3.70;99.90;;;;;;4899112;29;20219;-68
2022/12/04 08:23:45;;;;;;;10.55;6.68;;;3.70;99.90;;;;;;4881001;29;20195;-68
2022/12/04 08:26:11;;;;;;;10.50;6.10;;;3.70;99.90;;;;;;4881228;29;20528;-69
2022/12/04 08:28:38;;;;;;;7.88;5.32;;;3.70;99.90;;;;;;4881341;29;20624;-66
2022/12/04 08:31:16;;;;;;;9.45;5.55;;;3.70;99.90;;;;;;4890457;29;20560;-67
2022/12/04 08:33:43;;;;;;;10.38;7.85;;;3.70;99.90;;;;;;4880699;29;20707;-71
2022/12/04 08:36:11;;;;;;;9.35;7.07;;;3.70;99.90;;;;;;4898278;29;20810;-66
2022/12/04 08:38:37;;;;;;;8.73;5.95;;;3.70;99.90;;;;;;4899945;29;20175;-67
2022/12/04 08:41:06;;;;;;;7.90;4.75;;;3.70;99.90;;;;;;4899911;29;20179;-67
2022/12/04 08:43:32;;;;;;;7.53;4.90;;;3.80;99.90;;;;;;4916504;29;20579;-66
2022/12/04 08:46:03;;;;;;;7.93;5.60;;;3.80;99.90;;;;;;4918369;29;20202;-66
2022/12/04 08:48:30;;;;;;;8.57;5.40;;;3.80;99.90;;;;;;4908839;29;20604;-68
2022/12/04 08:50:56;;;;;;;8.77;5.88;;;3.80;99.90;;;;;;4898221;29;20218;-68
2022/12/04 08:53:22;;;;;;;9.82;6.15;;;3.80;99.90;;;;;;4914933;29;20175;-64
2022/12/04 08:55:48;;;;;;;8.85;6.35;;;3.80;99.90;;;;;;4918424;29;20538;-67
2022/12/04 08:58:14;;;;;;;10.60;6.18;;;3.90;99.90;;;;;;4918503;29;20174;-65
2022/12/04 09:00:41;;;;;;;9.77;6.18;;;3.90;99.90;;;;;;4910973;29;20274;-66
2022/12/04 09:03:06;;;;;;;11.07;6.07;;;3.90;99.90;;;;;;4897690;29;20207;-69
2022/12/04 09:05:32;;;;;;;11.07;7.10;;;3.90;99.90;;;;;;4899302;29;20214;-66
2022/12/04 09:07:57;;;;;;;11.57;6.70;;;4.00;99.90;;;;;;4899206;29;20413;-67
2022/12/04 09:10:23;;;;;;;10.57;7.00;;;4.00;99.90;;;;;;4903136;29;20232;-65
2022/12/04 09:12:49;;;;;;;12.93;6.67;;;4.00;99.90;;;;;;4914296;29;20176;-67
2022/12/04 09:15:15;;;;;;;14.60;7.73;;;4.00;99.90;;;;;;4906803;29;20455;-66
2022/12/04 09:17:40;;;;;;;9.87;6.20;;;4.00;99.90;;;;;;4895071;29;20515;-67
2022/12/04 09:20:07;;;;;;;6.50;5.70;;;4.00;99.90;;;;;;4899028;29;20175;-67
2022/12/04 09:22:34;;;;;;;9.30;6.82;;;4.00;99.90;;;;;;4896925;29;20572;-68
2022/12/04 09:25:00;;;;;;;14.90;7.72;;;4.00;99.90;;;;;;4898120;29;20203;-67
2022/12/04 09:27:26;;;;;;;9.10;6.50;;;4.00;99.90;;;;;;4912611;29;20191;-65
2022/12/04 09:29:52;;;;;;;10.25;5.90;;;4.00;99.90;;;;;;4909259;29;20170;-69
2022/12/04 09:32:17;;;;;;;14.13;7.60;;;3.90;99.90;;;;;;4898469;29;20714;-70
2022/12/04 09:34:45;;;;;;;10.50;6.33;;;3.90;99.90;;;;;;4898469;29;20723;-68
2022/12/04 09:37:10;;;;;;;7.72;5.72;;;3.90;99.90;;;;;;4910089;29;20182;-70
2022/12/04 09:39:36;;;;;;;7.10;5.97;;;3.90;99.90;;;;;;4917634;29;20222;-70
2022/12/04 09:42:21;;;;;;;8.50;6.30;;;3.90;99.90;;;;;;4917610;29;20575;-66
2022/12/04 09:45:09;;;;;;;7.18;6.38;;;3.90;99.90;;;;;;4907665;29;20305;-69
2022/12/04 09:47:39;;;;;;;12.48;6.72;;;3.90;99.90;;;;;;4909108;29;20267;-68
2022/12/04 09:50:05;;;;;;;8.48;6.30;;;3.80;99.90;;;;;;4898481;29;20194;-68
2022/12/04 09:52:42;;;;;;;9.70;6.70;;;3.80;99.90;;;;;;4898386;29;20171;-67
2022/12/04 09:55:25;;;;;;;7.78;6.10;;;3.80;99.90;;;;;;4898316;29;20194;-67
2022/12/04 09:57:54;;;;;;;8.07;4.97;;;3.90;99.90;;;;;;4912930;29;20197;-67
2022/12/04 10:00:20;;;;;;;11.63;5.35;;;3.90;99.90;;;;;;4898258;29;20662;-66
2022/12/04 10:03:00;;;;;;;7.80;6.43;;;3.90;99.90;;;;;;4902548;29;20179;-67
2022/12/04 10:05:53;;;;;;;11.50;6.05;;;3.90;99.90;;;;;;4917077;29;20206;-65
2022/12/04 10:08:27;;;;;;;8.65;6.22;;;4.00;99.90;;;;;;4901626;29;20197;-66
2022/12/04 10:11:09;;;;;;;8.55;5.63;;;4.00;99.90;;;;;;4898006;29;20198;-69
2022/12/04 10:13:47;;;;;;;14.98;6.80;;;4.00;99.90;;;;;;4893196;29;20176;-68
2022/12/04 10:16:21;;;;;;;9.43;5.95;;;4.00;99.90;;;;;;4911646;29;20182;-68
2022/12/04 10:19:19;;;;;;;8.80;6.60;;;4.00;99.90;;;;;;4901325;29;20294;-66
2022/12/04 10:22:21;;;;;;;9.43;4.85;;;4.00;99.90;;;;;;4898273;29;20603;-68
2022/12/04 10:24:53;;;;;;;7.80;4.40;;;4.00;99.90;;;;;;4897526;29;20207;-67
2022/12/04 10:27:30;;;;;;;8.13;6.30;;;4.00;99.90;;;;;;4899178;29;20188;-66
2022/12/04 10:30:06;;;;;;;9.73;6.00;;;4.00;99.90;;;;;;4900955;29;20184;-70
2022/12/04 10:32:33;;;;;;;8.82;6.18;;;4.00;99.90;;;;;;4899272;29;20179;-66
2022/12/04 10:35:19;;;;;;;12.85;7.60;;;4.00;99.90;;;;;;4916384;29;20262;-68
2022/12/04 10:37:48;;;;;;;6.65;5.57;;;4.00;99.90;;;;;;4911870;29;20206;-68
2022/12/04 10:40:26;;;;;;;8.77;5.25;;;4.00;99.90;;;;;;4901672;29;20183;-67
2022/12/04 10:43:30;;;;;;;9.98;6.22;;;4.00;99.90;;;;;;4896485;29;20278;-70
2022/12/04 10:45:57;;;;;;;6.20;4.63;;;3.90;99.90;;;;;;4890599;29;20595;-68
2022/12/04 10:48:31;;;;;;;5.03;3.28;;;4.00;99.90;;;;;;4901222;29;20257;-67
2022/12/04 10:50:56;;;;;;;13.20;7.78;;;4.00;99.90;;;;;;4900514;29;20199;-66
2022/12/04 10:53:30;;;;;;;10.27;7.17;;;4.10;99.90;;;;;;4897071;29;20258;-65
2022/12/04 10:56:11;;;;;;;7.68;5.35;;;4.20;99.90;;;;;;4905116;29;20237;-65
2022/12/04 10:58:37;;;;;;;7.28;4.50;;;4.20;99.90;;;;;;4916738;29;20174;-65
2022/12/04 11:01:10;;;;;;;10.70;6.40;;;4.20;99.90;;;;;;4913905;29;20187;-66
2022/12/04 11:03:36;;;;;;;8.10;5.45;;;4.10;99.90;;;;;;4896985;29;20199;-66
2022/12/04 11:06:05;;;;;;;10.88;5.93;;;4.10;99.90;;;;;;4899228;29;20222;-67
2022/12/04 11:08:47;;;;;;;7.45;5.03;;;4.00;99.90;;;;;;4896951;29;20174;-65
2022/12/04 11:11:15;;;;;;;6.20;5.60;;;4.10;99.90;;;;;;4900371;29;20240;-68
2022/12/04 11:13:41;;;;;;;10.13;5.72;;;4.10;99.90;;;;;;4899860;29;20206;-66
2022/12/04 11:16:07;;;;;;;6.22;4.65;;;4.00;99.90;;;;;;4909434;29;20179;-67
2022/12/04 11:18:47;;;;;;;8.57;5.70;;;4.00;99.90;;;;;;4919953;29;20538;-66
2022/12/04 11:21:22;;;;;;;9.07;5.75;;;4.00;99.90;;;;;;4908448;29;20217;-66
2022/12/04 11:23:50;;;;;;;10.13;5.95;;;4.00;99.90;;;;;;4900984;29;20295;-67
2022/12/04 11:26:28;;;;;;;9.63;5.97;;;4.00;99.90;;;;;;4901510;29;20179;-68
2022/12/04 11:28:56;;;;;;;10.13;6.38;;;4.00;99.90;;;;;;4901371;29;20163;-68
2022/12/04 11:31:22;;;;;;;8.88;5.93;;;4.10;99.90;;;;;;4901087;29;20206;-67
2022/12/04 11:33:58;;;;;;;8.10;5.30;;;4.10;99.90;;;;;;4915978;29;20678;-67
2022/12/04 11:36:29;;;;;;;11.95;6.32;;;4.10;99.90;;;;;;4907698;29;20422;-66
2022/12/04 11:39:07;;;;;;;6.63;5.10;;;4.10;99.90;;;;;;4901099;29;20186;-68
2022/12/04 11:41:33;;;;;;;9.88;5.97;;;4.10;99.90;;;;;;4908680;29;20241;-67
2022/12/04 11:43:59;;;;;;;10.10;5.70;;;4.10;99.90;;;;;;4919048;29;20234;-66
2022/12/04 11:46:29;;;;;;;7.60;5.60;;;4.20;99.90;;;;;;4919907;29;20175;-67
2022/12/04 11:48:55;;;;;;;10.40;6.30;;;4.30;99.90;;;;;;4919872;29;20184;-66
2022/12/04 11:51:54;;;;;;;9.40;5.53;;;4.20;99.90;;;;;;4916571;29;20289;-68
2022/12/04 11:54:33;;;;;;;8.90;5.63;;;4.20;99.90;;;;;;4900052;29;20432;-66
2022/12/04 11:57:24;;;;;;;4.90;4.38;;;4.30;99.90;;;;;;4900583;29;20572;-66
2022/12/04 12:00:10;;;;;;;8.23;7.10;;;4.30;99.90;;;;;;4903899;29;20241;-64
2022/12/04 12:02:56;;;;;;;7.32;6.50;;;4.30;99.90;;;;;;4919073;29;20229;-67
2022/12/04 12:05:41;;;;;;;13.32;6.00;;;4.40;99.90;;;;;;4919345;29;20209;-66
2022/12/04 12:08:09;;;;;;;7.95;5.88;;;4.40;99.90;;;;;;4919286;29;20254;-67
2022/12/04 12:11:13;;;;;;;7.75;4.60;;;4.40;99.90;;;;;;4903357;29;20285;-67
2022/12/04 12:14:05;;;;;;;8.30;5.20;;;4.40;99.90;;;;;;4878221;29;20206;-69
2022/12/04 12:16:37;;;;;;;8.88;6.63;;;4.50;99.90;;;;;;4882040;29;20197;-68
2022/12/04 12:19:23;;;;;;;9.85;6.07;;;4.60;99.90;;;;;;4900206;29;20278;-64
2022/12/04 12:22:04;;;;;;;9.32;5.72;;;4.60;99.90;;;;;;4899424;29;20535;-65
2022/12/04 12:24:56;;;;;;;7.95;5.65;;;4.60;99.90;;;;;;4899529;29;20199;-68
2022/12/04 12:27:59;;;;;;;14.20;6.07;;;4.60;99.90;;;;;;4896442;29;20190;-67
2022/12/04 12:30:30;;;;;;;10.38;6.45;;;4.60;99.90;;;;;;4918854;29;20206;-66
2022/12/04 12:33:20;;;;;;;9.25;6.35;;;4.70;99.90;;;;;;4918749;29;20269;-66
2022/12/04 12:36:04;;;;;;;11.65;6.28;;;4.60;99.90;;;;;;4919259;29;20167;-66
2022/12/04 12:38:50;;;;;;;13.20;6.43;;;4.60;99.90;;;;;;4904173;29;20188;-68
2022/12/04 12:41:22;;;;;;;9.60;7.30;;;4.50;99.90;;;;;;4918126;29;20178;-67
2022/12/04 12:43:55;;;;;;;10.63;4.97;;;4.50;99.90;;;;;;4916300;29;20198;-67
2022/12/04 12:46:29;;;;;;;9.68;6.70;;;4.60;99.90;;;;;;4902256;29;20184;-67
2022/12/04 12:49:03;;;;;;;13.77;6.70;;;4.60;99.90;;;;;;4900021;29;20182;-70
2022/12/04 12:51:37;;;;;;;8.93;6.28;;;4.60;99.90;;;;;;4898479;29;20228;-69
2022/12/04 12:54:39;;;;;;;7.60;5.10;;;4.60;99.90;;;;;;4898911;29;20563;-66
2022/12/04 12:57:28;;;;;;;7.75;5.35;;;4.60;99.90;;;;;;4892089;29;20234;-67
2022/12/04 13:00:02;;;;;;;12.55;5.88;;;4.60;99.90;;;;;;4899855;29;20176;-66
2022/12/04 13:02:32;;;;;;;10.27;6.45;;;4.60;99.90;;;;;;4899841;29;20179;-67
2022/12/04 13:05:04;;;;;;;12.45;5.50;;;4.60;99.90;;;;;;4889290;29;20219;-69
2022/12/04 13:07:41;;;;;;;9.00;5.40;;;4.50;99.90;;;;;;4895584;29;20635;-67
2022/12/04 13:10:15;;;;;;;10.05;5.80;;;4.50;99.90;;;;;;4899621;29;20185;-66
2022/12/04 13:12:53;;;;;;;7.22;5.28;;;4.50;99.90;;;;;;4902650;29;20204;-67
2022/12/04 13:15:22;;;;;;;8.55;5.03;;;4.50;99.90;;;;;;4904599;29;20278;-66
2022/12/04 13:17:51;;;;;;;8.48;5.22;;;4.60;99.90;;;;;;4918578;29;20178;-66
2022/12/04 13:20:24;;;;;;;10.98;6.18;;;4.50;99.90;;;;;;4918373;29;20510;-67
2022/12/04 13:23:15;;;;;;;12.35;5.90;;;4.50;99.90;;;;;;4917944;29;20170;-66
2022/12/04 13:25:40;;;;;;;8.57;5.85;;;4.60;99.90;;;;;;4916521;29;20261;-65
2022/12/04 13:28:18;;;;;;;9.47;6.80;;;4.50;99.90;;;;;;4916384;29;20254;-66
2022/12/04 13:31:02;;;;;;;11.45;8.68;;;4.50;99.90;;;;;;4898673;29;20257;-66
2022/12/04 13:33:46;;;;;;;11.07;6.55;;;4.50;99.90;;;;;;4898476;29;20190;-67
2022/12/04 13:36:29;;;;;;;11.13;6.00;;;4.70;99.90;;;;;;4889805;29;20329;-68
2022/12/04 13:39:19;;;;;;;9.13;4.72;;;4.70;99.90;;;;;;4895229;29;20178;-66
2022/12/04 13:41:45;;;;;;;13.38;7.88;;;4.60;99.90;;;;;;4895112;29;20188;-67
2022/12/04 13:44:18;;;;;;;10.93;6.75;;;4.60;99.90;;;;;;4897386;29;20265;-68
2022/12/04 13:47:02;;;;;;;8.70;4.88;;;4.60;99.90;;;;;;4898749;29;20174;-67
2022/12/04 13:49:30;;;;;;;9.60;6.22;;;4.50;99.90;;;;;;4905578;29;20245;-67
2022/12/04 13:51:59;;;;;;;11.20;6.45;;;4.60;99.90;;;;;;4912807;29;20245;-68
2022/12/04 13:54:42;;;;;;;9.75;7.47;;;4.60;99.90;;;;;;4898271;29;20589;-68
2022/12/04 13:57:14;;;;;;;9.82;7.03;;;4.60;99.90;;;;;;4899203;29;20192;-67
2022/12/04 13:59:41;;;;;;;11.57;5.60;;;4.60;99.90;;;;;;4916066;29;20189;-67
2022/12/04 14:02:28;;;;;;;9.20;6.28;;;4.60;99.90;;;;;;4912142;29;20243;-67
2022/12/04 14:04:58;;;;;;;10.07;5.22;;;4.60;99.90;;;;;;4881532;29;20210;-68
2022/12/04 14:07:30;;;;;;;9.52;6.25;;;4.50;99.90;;;;;;4900882;29;20273;-67
2022/12/04 14:09:59;;;;;;;11.20;6.18;;;4.50;99.90;;;;;;4901334;29;20185;-68
2022/12/04 14:12:30;;;;;;;10.60;6.00;;;4.40;99.90;;;;;;4897433;29;20299;-67
2022/12/04 14:15:00;;;;;;;10.40;7.18;;;4.30;99.90;;;;;;4897795;29;20301;-69
2022/12/04 14:17:38;;;;;;;10.63;7.63;;;4.30;99.90;;;;;;4912131;29;20175;-68
2022/12/04 14:20:26;;;;;;;12.65;7.90;;;4.30;99.90;;;;;;4913691;29;20176;-67
2022/12/04 14:22:52;;;;;;;10.02;5.43;;;4.30;99.90;;;;;;4898611;29;20209;-67
2022/12/04 14:25:18;;;;;;;13.75;6.70;;;4.30;99.90;;;;;;4898191;29;20227;-67
2022/12/04 14:27:52;;;;;;;7.87;6.03;;;4.30;99.90;;;;;;4898365;29;20169;-68
2022/12/04 14:30:22;;;;;;;11.95;6.88;;;4.30;99.90;;;;;;4897996;29;20653;-66
2022/12/04 14:33:05;;;;;;;10.77;6.03;;;4.30;99.90;;;;;;4901786;29;20190;-68
2022/12/04 14:35:32;;;;;;;14.20;7.35;;;4.40;99.90;;;;;;4898009;29;20258;-67
2022/12/04 14:38:01;;;;;;;20.13;7.25;;;4.30;99.90;;;;;;4900987;29;20194;-66
2022/12/04 14:40:29;;;;;;;10.43;6.22;;;4.30;99.90;;;;;;4899859;29;20181;-66
2022/12/04 14:42:55;;;;;;;8.50;5.95;;;4.30;99.90;;;;;;4908045;29;20252;-68
2022/12/04 14:45:42;;;;;;;9.37;6.30;;;4.30;99.90;;;;;;4900182;29;20204;-68
2022/12/04 14:48:11;;;;;;;11.05;7.57;;;4.40;99.90;;;;;;4900861;29;20712;-68
2022/12/04 14:50:58;;;;;;;9.43;6.93;;;4.40;99.90;;;;;;4901649;29;20241;-66
2022/12/04 14:53:37;;;;;;;10.55;5.93;;;4.40;99.90;;;;;;4901461;29;20175;-67
2022/12/04 14:56:23;;;;;;;10.05;7.00;;;4.30;99.90;;;;;;4901377;29;20175;-69
2022/12/04 14:58:49;;;;;;;9.93;7.43;;;4.30;99.90;;;;;;4931518;29;20263;-69
2022/12/04 15:01:30;;;;;;;11.90;7.60;;;4.20;99.90;;;;;;4899559;29;20267;-69
2022/12/04 15:04:02;;;;;;;10.35;6.63;;;4.20;99.90;;;;;;4900971;29;20482;-67
2022/12/04 15:06:32;;;;;;;9.27;6.68;;;4.20;99.90;;;;;;4898534;29;20196;-69
2022/12/04 15:14:44;;;;;;;8.10;5.47;;;4.40;99.90;;;;;;4900619;29;20571;-69
2022/12/04 15:17:11;;;;;;;9.85;6.78;;;4.40;99.90;;;;;;4900851;29;20167;-68
2022/12/04 15:19:37;;;;;;;9.27;6.03;;;4.30;99.90;;;;;;4901253;29;20175;-68
2022/12/04 15:22:08;;;;;;;12.40;6.10;;;4.30;99.90;;;;;;4903102;29;20195;-67
2022/12/04 15:24:36;;;;;;;11.75;7.78;;;4.30;99.90;;;;;;4909885;29;20218;-68
2022/12/04 15:27:04;;;;;;;13.98;8.13;;;4.30;99.90;;;;;;4900098;29;20261;-67
2022/12/04 15:29:31;;;;;;;9.88;6.57;;;4.30;99.90;;;;;;4912675;29;20206;-69
2022/12/04 15:32:01;;;;;;;9.95;7.93;;;4.30;99.90;;;;;;4907086;29;20226;-67
2022/12/04 15:34:52;;;;;;;12.95;7.65;;;4.30;99.90;;;;;;4899713;29;20828;-69
2022/12/04 15:37:28;;;;;;;10.43;5.97;;;4.30;99.90;;;;;;4900722;29;20193;-68
2022/12/04 15:39:54;;;;;;;12.10;7.22;;;4.30;99.90;;;;;;4901163;29;20170;-70
2022/12/04 15:42:22;;;;;;;12.82;6.47;;;4.30;99.90;;;;;;4901188;29;20628;-68
2022/12/04 15:45:08;;;;;;;8.00;6.03;;;4.30;99.90;;;;;;4918975;29;20214;-68
2022/12/04 15:47:48;;;;;;;10.80;6.03;;;4.20;99.90;;;;;;4900607;29;20184;-69
2022/12/04 15:50:16;;;;;;;11.75;7.25;;;4.20;99.90;;;;;;4900900;29;20246;-69
2022/12/04 15:52:49;;;;;;;15.15;7.90;;;4.20;99.90;;;;;;4900806;29;20167;-68
2022/12/04 15:55:18;;;;;;;12.82;7.25;;;4.10;99.90;;;;;;4900451;29;20553;-70
2022/12/04 15:57:51;;;;;;;8.07;6.38;;;4.10;99.90;;;;;;4900175;29;20172;-69
2022/12/04 16:00:27;;;;;;;12.27;7.03;;;4.10;99.90;;;;;;4900419;29;20174;-68
2022/12/04 16:02:53;;;;;;;13.52;6.32;;;4.10;99.90;;;;;;4899520;29;20186;-69
2022/12/04 16:05:19;;;;;;;12.65;7.38;;;4.10;99.90;;;;;;4901965;29;20222;-67
2022/12/04 16:07:56;;;;;;;10.80;6.23;;;4.10;99.90;;;;;;4900361;29;20184;-68
2022/12/04 16:10:25;;;;;;;11.93;6.85;;;4.10;99.90;;;;;;4900184;29;20615;-68
2022/12/04 16:12:56;;;;;;;9.38;7.80;;;4.10;99.90;;;;;;4900236;29;20182;-69
2022/12/04 16:15:23;;;;;;;10.82;5.88;;;4.10;99.90;;;;;;4899603;29;20563;-69
2022/12/04 16:17:49;;;;;;;10.98;6.75;;;4.10;99.90;;;;;;4915816;29;20593;-67
2022/12/04 16:20:14;;;;;;;14.82;6.70;;;4.10;99.90;;;;;;4915908;29;20190;-67
2022/12/04 16:22:41;;;;;;;14.60;7.43;;;4.10;99.90;;;;;;4897287;29;20654;-67
2022/12/04 16:25:10;;;;;;;15.88;7.70;;;4.10;99.90;;;;;;4899714;29;20201;-66
2022/12/04 16:27:36;;;;;;;11.32;8.10;;;4.10;99.90;;;;;;4899811;29;20178;-67
2022/12/04 16:30:02;;;;;;;11.00;7.70;;;4.10;99.90;;;;;;4910776;29;20504;-67
2022/12/04 16:32:31;;;;;;;10.43;7.45;;;4.10;99.90;;;;;;4918879;29;20288;-71
2022/12/04 16:34:56;;;;;;;11.90;8.48;;;4.10;99.90;;;;;;4918977;29;20189;-69
2022/12/04 16:37:23;;;;;;;18.83;6.40;;;4.10;99.90;;;;;;4900315;29;20179;-67
2022/12/04 16:39:49;;;;;;;13.02;6.28;;;4.10;99.90;;;;;;4908854;29;20179;-69
2022/12/04 16:42:17;;;;;;;12.07;9.43;;;4.10;99.90;;;;;;4918866;29;20185;-70
2022/12/04 16:44:42;;;;;;;12.57;7.70;;;4.10;99.90;;;;;;4898007;29;20199;-69
2022/12/04 16:47:10;;;;;;;12.30;8.47;;;4.10;99.90;;;;;;4881063;29;20708;-69
2022/12/04 16:49:36;;;;;;;10.15;7.13;;;4.10;99.90;;;;;;4897201;29;20579;-68
2022/12/04 16:52:01;;;;;;;11.47;7.33;;;4.10;99.90;;;;;;4898716;29;20199;-70
2022/12/04 16:54:27;;;;;;;11.60;6.73;;;4.00;99.90;;;;;;4898915;29;20709;-70
2022/12/04 16:56:52;;;;;;;12.97;6.53;;;4.00;99.90;;;;;;4900110;29;20182;-70
2022/12/04 16:59:18;;;;;;;12.20;7.97;;;3.90;99.90;;;;;;4909327;29;20207;-70
2022/12/04 17:01:46;;;;;;;14.93;7.30;;;3.90;99.90;;;;;;4912023;29;20186;-69
2022/12/04 17:04:12;;;;;;;18.77;8.88;;;3.90;99.90;;;;;;4908611;29;20199;-69
2022/12/04 17:06:39;;;;;;;13.88;9.10;;;3.90;99.90;;;;;;4898635;29;20276;-68
2022/12/04 17:09:05;;;;;;;15.38;7.20;;;3.90;99.90;;;;;;4898930;29;20288;-68
2022/12/04 17:11:30;;;;;;;12.23;8.97;;;3.90;99.90;;;;;;4910505;29;20208;-70
2022/12/04 17:13:56;;;;;;;17.13;8.07;;;3.80;99.90;;;;;;4902012;29;20286;-68
2022/12/04 17:16:23;;;;;;;15.20;7.37;;;3.80;99.90;;;;;;4899127;29;20190;-69
2022/12/04 17:18:49;;;;;;;17.90;10.75;;;3.80;99.90;;;;;;4898752;29;20226;-70
2022/12/04 17:21:15;;;;;;;19.73;10.15;;;3.80;99.90;;;;;;4902788;29;20189;-71
2022/12/04 17:23:41;;;;;;;12.07;7.90;;;3.80;99.90;;;;;;4897703;29;20562;-69
2022/12/04 17:26:10;;;;;;;19.35;9.85;;;3.90;99.90;;;;;;4898838;29;20186;-70
2022/12/04 17:28:36;;;;;;;17.67;9.65;;;3.80;99.90;;;;;;4898518;29;20194;-68
2022/12/04 17:31:04;;;;;;;17.17;10.30;;;3.90;99.90;;;;;;4900337;29;20294;-71
2022/12/04 17:33:31;;;;;;;14.93;10.15;;;3.90;99.90;;;;;;4898412;29;20179;-69
2022/12/04 17:35:59;;;;;;;16.08;11.38;;;3.90;99.90;;;;;;4898356;29;20187;-69
2022/12/04 17:38:28;;;;;;;23.05;10.18;;;4.00;99.90;;;;;;4898637;29;20250;-68
2022/12/04 17:41:01;;;;;;;14.00;8.07;;;4.00;99.90;;;;;;4899079;29;20190;-69
2022/12/04 17:43:30;;;;;;;14.00;8.45;;;4.00;99.90;;;;;;4897971;29;20665;-68
2022/12/04 17:45:56;;;;;;;23.70;11.65;;;4.00;99.90;;;;;;4897783;29;20842;-69
2022/12/04 17:48:22;;;;;;;19.23;9.60;;;4.00;99.90;;;;;;4897875;29;20187;-70
2022/12/04 17:50:48;;;;;;;17.57;8.93;;;4.10;99.90;;;;;;4898162;29;20207;-68
2022/12/04 17:53:14;;;;;;;18.93;11.00;;;4.10;99.90;;;;;;4898193;29;20181;-67
2022/12/04 17:55:39;;;;;;;15.47;8.20;;;4.20;99.90;;;;;;4909596;29;20206;-66
2022/12/04 17:58:05;;;;;;;16.97;10.30;;;4.20;99.90;;;;;;4898165;29;20222;-67
2022/12/04 18:00:30;;;;;;;13.67;7.43;;;4.20;99.90;;;;;;4898284;29;20176;-68
2022/12/04 18:02:56;;;;;;;16.27;8.73;;;4.10;99.90;;;;;;4903002;29;20178;-69
2022/12/04 18:05:22;;;;;;;15.60;7.77;;;4.10;99.90;;;;;;4917115;29;20208;-66
2022/12/04 18:07:48;;;;;;;26.05;9.98;;;4.20;99.90;;;;;;4910484;29;20179;-71
2022/12/04 18:10:14;;;;;;;14.20;10.53;;;4.20;99.90;;;;;;4897602;29;20197;-66
2022/12/04 18:12:39;;;;;;;25.17;10.10;;;4.20;99.90;;;;;;4900175;29;20200;-69
2022/12/04 18:15:05;;;;;;;14.97;8.67;;;4.20;99.90;;;;;;4915626;29;20207;-70
2022/12/04 18:17:31;;;;;;;17.30;9.57;;;4.20;99.90;;;;;;4897467;29;20207;-72
2022/12/04 18:19:56;;;;;;;16.27;7.30;;;4.20;99.90;;;;;;4897264;29;20217;-70